createdAt,value
2023-05-05T00:00:15.905Z,101580.83
2023-05-05T00:03:03.963Z,101580.82
2023-05-05T00:05:32.541Z,101578.66
2023-05-05T00:08:00.508Z,101579.15
2023-05-05T00:10:28.686Z,101582.11
2023-05-05T00:12:56.716Z,101579.54
2023-05-05T00:15:25.090Z,101574.86
2023-05-05T00:17:53.430Z,101570.02
2023-05-05T00:20:22.010Z,101570.55
2023-05-05T00:22:49.959Z,101569.64
2023-05-05T00:25:17.924Z,101566.92
2023-05-05T00:27:46.201Z,101561.38
2023-05-05T00:30:14.191Z,101561.53
2023-05-05T00:32:42.106Z,101559.94
2023-05-05T00:35:10.162Z,101561.02
2023-05-05T00:37:38.601Z,101559.77
2023-05-05T00:40:07.931Z,101559.23
2023-05-05T00:42:43.647Z,101559.74
2023-05-05T00:45:13.580Z,101554.05
2023-05-05T00:47:53.843Z,101557.08
2023-05-05T00:50:23.984Z,101556.71
2023-05-05T00:52:55.063Z,101553.88
2023-05-05T00:55:23.273Z,101547.66
2023-05-05T00:57:51.501Z,101548.90
2023-05-05T01:00:19.659Z,101547.30
2023-05-05T01:02:47.675Z,101548.55
2023-05-05T01:05:16.468Z,101547.68
2023-05-05T01:08:10.724Z,101545.90
2023-05-05T01:10:45.994Z,101548.71
2023-05-05T01:13:42.933Z,101540.30
2023-05-05T01:16:27.732Z,101538.53
2023-05-05T01:18:59.676Z,101538.89
2023-05-05T01:22:02.394Z,101539.45
2023-05-05T01:24:50.182Z,101537.67
2023-05-05T01:27:27.353Z,101538.16
2023-05-05T01:30:17.019Z,101539.91
2023-05-05T01:32:52.310Z,101542.59
2023-05-05T01:35:36.234Z,101539.55
2023-05-05T01:38:26.424Z,101539.16
2023-05-05T01:41:25.468Z,101535.77
2023-05-05T01:43:56.143Z,101522.98
2023-05-05T01:46:25.673Z,101511.96
2023-05-05T01:48:57.018Z,101513.39
2023-05-05T01:51:27.468Z,101511.64
2023-05-05T01:53:59.439Z,101510.39
2023-05-05T01:56:28.923Z,101506.25
2023-05-05T01:58:59.007Z,101509.39
2023-05-05T02:01:29.180Z,101510.78
2023-05-05T02:03:59.016Z,101512.04
2023-05-05T02:06:30.934Z,101517.39
2023-05-05T02:08:59.596Z,101522.91
2023-05-05T02:11:29.301Z,101522.73
2023-05-05T02:13:59.008Z,101522.56
2023-05-05T02:16:31.318Z,101520.13
2023-05-05T02:19:05.195Z,101521.71
2023-05-05T02:21:34.528Z,101521.15
2023-05-05T02:24:02.777Z,101520.95
2023-05-05T02:26:35.465Z,101524.86
2023-05-05T02:29:29.031Z,101521.98
2023-05-05T02:32:02.839Z,101519.90
2023-05-05T02:34:39.819Z,101519.58
2023-05-05T02:37:11.289Z,101523.85
2023-05-05T02:39:58.543Z,101520.45
2023-05-05T02:42:37.366Z,101526.13
2023-05-05T02:45:12.311Z,101524.17
2023-05-05T02:47:42.190Z,101524.90
2023-05-05T02:50:12.063Z,101528.48
2023-05-05T02:52:44.734Z,101533.30
2023-05-05T02:55:15.082Z,101532.96
2023-05-05T02:58:05.371Z,101537.20
2023-05-05T03:00:43.989Z,101537.69
2023-05-05T03:03:30.650Z,101532.50
2023-05-05T03:06:11.771Z,101530.89
2023-05-05T03:08:52.659Z,101526.11
2023-05-05T03:11:37.615Z,101527.70
2023-05-05T03:14:17.485Z,101522.40
2023-05-05T03:16:47.899Z,101524.19
2023-05-05T03:19:19.303Z,101520.34
2023-05-05T03:21:49.038Z,101519.32
2023-05-05T03:24:19.160Z,101519.90
2023-05-05T03:26:57.749Z,101520.31
2023-05-05T03:29:30.222Z,101516.25
2023-05-05T03:31:59.376Z,101510.09
2023-05-05T03:34:27.523Z,101514.02
2023-05-05T03:36:55.803Z,101511.01
2023-05-05T03:39:23.865Z,101512.80
2023-05-05T03:41:51.944Z,101507.83
2023-05-05T03:44:20.683Z,101511.57
2023-05-05T03:46:48.935Z,101513.38
2023-05-05T03:49:18.206Z,101510.77
2023-05-05T03:51:47.713Z,101517.05
2023-05-05T03:54:16.909Z,101515.65
2023-05-05T03:56:44.923Z,101513.17
2023-05-05T03:59:12.885Z,101508.95
2023-05-05T04:01:41.647Z,101505.79
2023-05-05T04:04:09.933Z,101505.80
2023-05-05T04:06:38.089Z,101504.77
2023-05-05T04:09:06.489Z,101500.20
2023-05-05T04:11:34.606Z,101499.66
2023-05-05T04:14:03.224Z,101497.73
2023-05-05T04:16:31.441Z,101503.95
2023-05-05T04:19:00.004Z,101504.50
2023-05-05T04:21:28.827Z,101503.06
2023-05-05T04:23:57.973Z,101503.78
2023-05-05T04:26:27.380Z,101505.22
2023-05-05T04:28:55.925Z,101510.41
2023-05-05T04:31:24.362Z,101510.80
2023-05-05T04:33:52.882Z,101507.96
2023-05-05T04:36:21.298Z,101510.48
2023-05-05T04:38:49.226Z,101511.74
2023-05-05T04:41:17.338Z,101510.17
2023-05-05T04:43:46.237Z,101513.02
2023-05-05T04:46:15.446Z,101509.33
2023-05-05T04:48:43.805Z,101511.30
2023-05-05T04:51:13.013Z,101510.78
2023-05-05T04:53:41.892Z,101510.23
2023-05-05T04:56:09.966Z,101513.77
2023-05-05T04:58:38.349Z,101511.42
2023-05-05T05:01:07.242Z,101509.80
2023-05-05T05:03:35.415Z,101510.90
2023-05-05T05:06:03.830Z,101512.13
2023-05-05T05:08:31.867Z,101513.58
2023-05-05T05:11:00.956Z,101516.29
2023-05-05T05:13:29.239Z,101513.15
2023-05-05T05:15:57.319Z,101514.80
2023-05-05T05:18:25.348Z,101519.65
2023-05-05T05:20:54.197Z,101527.54
2023-05-05T05:23:22.281Z,101532.55
2023-05-05T05:25:50.767Z,101537.82
2023-05-05T05:28:19.611Z,101538.50
2023-05-05T05:30:52.778Z,101544.31
2023-05-05T05:33:20.848Z,101548.96
2023-05-05T05:35:48.990Z,101550.26
2023-05-05T05:38:18.460Z,101547.80
2023-05-05T05:40:46.929Z,101551.05
2023-05-05T05:43:15.514Z,101554.65
2023-05-05T05:45:43.815Z,101557.55
2023-05-05T05:48:12.274Z,101556.73
2023-05-05T05:50:40.320Z,101558.48
2023-05-05T05:53:08.525Z,101558.38
2023-05-05T05:55:36.546Z,101560.09
2023-05-05T05:58:04.973Z,101559.06
2023-05-05T06:00:33.036Z,101561.25
2023-05-05T06:03:03.990Z,101558.30
2023-05-05T06:05:34.396Z,101562.60
2023-05-05T06:08:02.576Z,101560.75
2023-05-05T06:10:31.641Z,101563.17
2023-05-05T06:13:06.211Z,101563.02
2023-05-05T06:15:34.488Z,101566.42
2023-05-05T06:18:03.358Z,101567.41
2023-05-05T06:20:32.152Z,101570.11
2023-05-05T06:23:00.656Z,101571.10
2023-05-05T06:25:29.210Z,101569.23
2023-05-05T06:27:57.154Z,101573.31
2023-05-05T06:30:26.309Z,101569.92
2023-05-05T06:32:54.518Z,101573.68
2023-05-05T06:35:22.664Z,101574.58
2023-05-05T06:37:50.595Z,101569.04
2023-05-05T06:40:18.534Z,101567.39
2023-05-05T06:42:46.643Z,101572.04
2023-05-05T06:45:18.394Z,101579.07
2023-05-05T06:47:46.429Z,101575.05
2023-05-05T06:50:14.641Z,101571.86
2023-05-05T06:52:42.972Z,101571.86
2023-05-05T06:55:10.964Z,101577.27
2023-05-05T06:57:38.977Z,101575.73
2023-05-05T07:00:11.366Z,101579.92
2023-05-05T07:02:40.229Z,101577.45
2023-05-05T07:05:08.661Z,101571.14
2023-05-05T07:07:37.596Z,101577.91
2023-05-05T07:10:06.425Z,101576.80
2023-05-05T07:12:34.873Z,101579.49
2023-05-05T07:15:12.137Z,101588.06
2023-05-05T07:17:44.603Z,101588.21
2023-05-05T07:20:13.172Z,101587.70
2023-05-05T07:22:41.126Z,101593.08
2023-05-05T07:25:09.682Z,101601.46
2023-05-05T07:27:37.785Z,101597.65
2023-05-05T07:30:11.180Z,101597.04
2023-05-05T07:32:41.554Z,101603.58
2023-05-05T07:35:09.944Z,101603.35
2023-05-05T07:37:38.214Z,101601.02
2023-05-05T07:40:07.354Z,101598.72
2023-05-05T07:42:35.429Z,101599.80
2023-05-05T07:45:04.266Z,101600.17
2023-05-05T07:47:32.536Z,101596.96
2023-05-05T07:50:01.440Z,101593.34
2023-05-05T07:52:44.286Z,101596.23
2023-05-05T07:55:16.744Z,101599.48
2023-05-05T07:57:44.755Z,101601.16
2023-05-05T08:00:13.758Z,101599.84
2023-05-05T08:02:42.064Z,101598.22
2023-05-05T08:05:11.593Z,101599.00
2023-05-05T08:07:41.784Z,101603.67
2023-05-05T08:10:13.032Z,101599.02
2023-05-05T08:12:41.258Z,101597.81
2023-05-05T08:15:09.979Z,101598.06
2023-05-05T08:17:49.775Z,101596.30
2023-05-05T08:20:19.976Z,101594.02
2023-05-05T08:22:50.540Z,101592.94
2023-05-05T08:25:18.687Z,101595.69
2023-05-05T08:27:46.759Z,101594.70
2023-05-05T08:30:17.379Z,101592.07
2023-05-05T08:32:45.584Z,101592.30
2023-05-05T08:35:14.064Z,101587.27
2023-05-05T08:37:42.416Z,101588.70
2023-05-05T08:40:14.488Z,101587.80
2023-05-05T08:42:43.774Z,101583.02
2023-05-05T08:45:12.681Z,101585.24
2023-05-05T08:47:42.193Z,101583.59
2023-05-05T08:50:11.529Z,101584.36
2023-05-05T08:52:45.227Z,101586.23
2023-05-05T08:55:50.504Z,101589.09
2023-05-05T08:58:19.413Z,101587.95
2023-05-05T09:00:47.488Z,101584.80
2023-05-05T09:03:16.697Z,101582.09
2023-05-05T09:05:45.051Z,101584.35
2023-05-05T09:08:13.678Z,101588.52
2023-05-05T09:10:42.622Z,101589.88
2023-05-05T09:13:10.937Z,101592.92
2023-05-05T09:15:39.190Z,101597.07
2023-05-05T09:18:12.279Z,101595.29
2023-05-05T09:20:41.676Z,101595.64
2023-05-05T09:23:13.749Z,101596.47
2023-05-05T09:25:45.121Z,101596.88
2023-05-05T09:28:15.831Z,101599.20
2023-05-05T09:30:46.687Z,101605.61
2023-05-05T09:33:14.881Z,101605.69
2023-05-05T09:35:54.255Z,101600.77
2023-05-05T09:38:23.846Z,101601.31
2023-05-05T09:40:53.451Z,101598.94
2023-05-05T09:43:23.511Z,101595.79
2023-05-05T09:45:51.932Z,101591.16
2023-05-05T09:48:25.661Z,101589.10
2023-05-05T09:50:54.470Z,101586.69
2023-05-05T09:53:23.397Z,101589.95
2023-05-05T09:55:58.722Z,101592.36
2023-05-05T09:58:29.375Z,101589.88
2023-05-05T10:00:58.995Z,101586.98
2023-05-05T10:03:27.137Z,101586.98
2023-05-05T10:05:57.045Z,101587.63
2023-05-05T10:08:27.563Z,101582.80
2023-05-05T10:10:57.013Z,101584.33
2023-05-05T10:13:26.276Z,101579.61
2023-05-05T10:15:56.290Z,101575.73
2023-05-05T10:18:26.448Z,101571.09
2023-05-05T10:20:54.586Z,101566.81
2023-05-05T10:23:24.942Z,101570.83
2023-05-05T10:25:59.337Z,101567.00
2023-05-05T10:28:34.684Z,101566.95
2023-05-05T10:31:20.059Z,101569.29
2023-05-05T10:34:04.305Z,101571.85
2023-05-05T10:36:34.321Z,101571.17
2023-05-05T10:39:03.418Z,101572.00
2023-05-05T10:41:33.542Z,101574.94
2023-05-05T10:44:04.467Z,101570.52
2023-05-05T10:46:33.105Z,101568.88
2023-05-05T10:49:23.426Z,101562.84
2023-05-05T10:51:51.323Z,101560.57
2023-05-05T10:54:38.289Z,101551.24
2023-05-05T10:57:10.844Z,101553.70
2023-05-05T10:59:39.039Z,101550.87
2023-05-05T11:02:27.952Z,101552.82
2023-05-05T11:05:21.728Z,101551.00
2023-05-05T11:07:53.082Z,101550.48
2023-05-05T11:10:23.155Z,101547.10
2023-05-05T11:12:59.456Z,101543.48
2023-05-05T11:15:27.719Z,101537.52
2023-05-05T11:17:57.010Z,101534.34
2023-05-05T11:20:39.509Z,101534.81
2023-05-05T11:23:07.725Z,101537.56
2023-05-05T11:25:42.274Z,101538.67
2023-05-05T11:28:12.875Z,101538.58
2023-05-05T11:30:53.032Z,101536.67
2023-05-05T11:33:36.977Z,101533.48
2023-05-05T11:36:07.441Z,101532.08
2023-05-05T11:38:54.641Z,101538.92
2023-05-05T11:41:42.359Z,101544.58
2023-05-05T11:44:14.657Z,101561.38
2023-05-05T11:47:05.993Z,101561.88
2023-05-05T11:49:38.569Z,101537.66
2023-05-05T11:52:12.641Z,101536.59
2023-05-05T11:54:50.793Z,101538.05
2023-05-05T11:57:27.060Z,101539.01
2023-05-05T11:59:56.713Z,101544.02
2023-05-05T12:02:27.832Z,101538.36
2023-05-05T12:04:57.852Z,101540.59
2023-05-05T12:07:28.924Z,101543.91
2023-05-05T12:09:57.085Z,101550.27
2023-05-05T12:12:40.584Z,101552.59
2023-05-05T12:15:10.250Z,101549.61
2023-05-05T12:17:46.332Z,101543.25
2023-05-05T12:20:14.870Z,101545.98
2023-05-05T12:22:43.969Z,101545.30
2023-05-05T12:25:12.224Z,101533.20
2023-05-05T12:27:41.443Z,101528.66
2023-05-05T12:30:18.110Z,101532.36
2023-05-05T12:32:46.620Z,101533.73
2023-05-05T12:35:16.110Z,101534.25
2023-05-05T12:37:44.951Z,101535.63
2023-05-05T12:40:48.770Z,101530.92
2023-05-05T12:43:31.367Z,101529.64
2023-05-05T12:46:12.047Z,101521.91
2023-05-05T12:48:46.414Z,101512.98
2023-05-05T12:51:21.444Z,101511.40
2023-05-05T12:54:02.097Z,101499.44
2023-05-05T12:56:37.751Z,101499.73
2023-05-05T12:59:08.199Z,101503.54
2023-05-05T13:01:37.890Z,101505.12
2023-05-05T13:04:11.258Z,101504.77
2023-05-05T13:06:44.520Z,101503.81
2023-05-05T13:09:30.565Z,101500.20
2023-05-05T13:11:59.151Z,101500.18
2023-05-05T13:14:27.203Z,101499.61
2023-05-05T13:16:55.807Z,101496.84
2023-05-05T13:19:25.046Z,101497.20
2023-05-05T13:21:57.755Z,101493.66
2023-05-05T13:24:42.363Z,101495.12
2023-05-05T13:27:14.455Z,101499.64
2023-05-05T13:29:42.512Z,101495.17
2023-05-05T13:32:10.768Z,101502.75
2023-05-05T13:34:39.551Z,101501.23
2023-05-05T13:37:08.796Z,101506.75
2023-05-05T13:39:37.146Z,101502.27
2023-05-05T13:42:05.192Z,101499.69
2023-05-05T13:44:33.251Z,101508.89
2023-05-05T13:47:01.339Z,101522.65
2023-05-05T13:49:29.329Z,101524.27
2023-05-05T13:51:57.382Z,101527.15
2023-05-05T13:54:26.216Z,101535.77
2023-05-05T13:56:54.169Z,101531.38
2023-05-05T13:59:22.055Z,101524.33
2023-05-05T14:01:50.283Z,101511.89
2023-05-05T14:04:18.350Z,101505.38
2023-05-05T14:06:46.572Z,101506.65
2023-05-05T14:09:14.708Z,101503.80
2023-05-05T14:11:42.718Z,101502.40
2023-05-05T14:14:10.839Z,101501.77
2023-05-05T14:16:39.063Z,101497.40
2023-05-05T14:19:07.146Z,101498.10
2023-05-05T14:21:35.117Z,101501.08
2023-05-05T14:24:03.110Z,101498.06
2023-05-05T14:26:31.404Z,101496.88
2023-05-05T14:28:59.599Z,101495.80
2023-05-05T14:31:28.848Z,101494.16
2023-05-05T14:33:57.055Z,101489.79
2023-05-05T14:36:24.984Z,101484.11
2023-05-05T14:38:53.036Z,101475.05
2023-05-05T14:41:21.383Z,101470.35
2023-05-05T14:43:49.445Z,101472.41
2023-05-05T14:46:18.808Z,101468.02
2023-05-05T14:48:47.464Z,101463.41
2023-05-05T14:51:15.997Z,101457.44
2023-05-05T14:53:44.003Z,101464.52
2023-05-05T14:56:11.954Z,101461.81
2023-05-05T14:58:40.135Z,101464.92
2023-05-05T15:01:08.228Z,101462.60
2023-05-05T15:03:36.467Z,101466.98
2023-05-05T15:06:05.597Z,101460.42
2023-05-05T15:08:33.913Z,101465.19
2023-05-05T15:11:01.995Z,101467.53
2023-05-05T15:13:30.400Z,101467.29
2023-05-05T15:15:58.534Z,101468.79
2023-05-05T15:18:26.694Z,101466.57
2023-05-05T15:20:54.837Z,101466.52
2023-05-05T15:23:22.725Z,101468.61
2023-05-05T15:25:51.118Z,101462.15
2023-05-05T15:28:19.337Z,101465.52
2023-05-05T15:30:47.416Z,101463.77
2023-05-05T15:33:16.791Z,101455.77
2023-05-05T15:35:45.599Z,101455.70
2023-05-05T15:38:13.717Z,101453.06
2023-05-05T15:40:44.567Z,101456.77
2023-05-05T15:43:12.889Z,101454.46
2023-05-05T15:45:43.619Z,101450.73
2023-05-05T15:48:11.746Z,101454.54
2023-05-05T15:50:39.734Z,101453.52
2023-05-05T15:53:07.843Z,101448.13
2023-05-05T15:55:36.344Z,101451.55
2023-05-05T15:58:04.437Z,101454.36
2023-05-05T16:00:32.664Z,101453.63
2023-05-05T16:03:00.892Z,101454.73
2023-05-05T16:05:28.919Z,101458.51
2023-05-05T16:07:57.081Z,101460.91
2023-05-05T16:10:25.159Z,101460.64
2023-05-05T16:12:53.161Z,101459.02
2023-05-05T16:15:21.404Z,101458.77
2023-05-05T16:17:49.638Z,101455.16
2023-05-05T16:20:17.861Z,101457.39
2023-05-05T16:22:46.063Z,101456.69
2023-05-05T16:25:14.399Z,101465.81
2023-05-05T16:27:42.554Z,101462.93
2023-05-05T16:30:12.900Z,101469.23
2023-05-05T16:32:41.674Z,101470.84
2023-05-05T16:35:11.908Z,101474.03
2023-05-05T16:37:39.907Z,101474.05
2023-05-05T16:40:08.941Z,101470.56
2023-05-05T16:42:37.056Z,101471.65
2023-05-05T16:45:06.848Z,101479.36
2023-05-05T16:47:34.951Z,101480.91
2023-05-05T16:50:03.344Z,101481.41
2023-05-05T16:52:31.485Z,101478.91
2023-05-05T16:54:59.434Z,101475.20
2023-05-05T16:57:27.404Z,101475.59
2023-05-05T16:59:56.421Z,101482.02
2023-05-05T17:02:24.588Z,101482.30
2023-05-05T17:04:52.975Z,101489.93
2023-05-05T17:07:21.460Z,101491.80
2023-05-05T17:09:49.743Z,101495.59
2023-05-05T17:12:17.911Z,101486.98
2023-05-05T17:14:46.209Z,101493.20
2023-05-05T17:17:14.292Z,101501.22
2023-05-05T17:19:42.773Z,101497.19
2023-05-05T17:22:10.987Z,101490.39
2023-05-05T17:24:39.058Z,101497.71
2023-05-05T17:27:07.384Z,101491.80
2023-05-05T17:29:40.787Z,101486.00
2023-05-05T17:32:09.388Z,101485.96
2023-05-05T17:34:37.949Z,101482.45
2023-05-05T17:37:06.252Z,101481.84
2023-05-05T17:39:34.368Z,101485.20
2023-05-05T17:42:02.554Z,101480.77
2023-05-05T17:44:31.672Z,101478.52
2023-05-05T17:46:59.855Z,101483.27
2023-05-05T17:49:27.825Z,101493.91
2023-05-05T17:51:56.044Z,101493.52
2023-05-05T17:54:24.033Z,101489.13
2023-05-05T17:56:52.000Z,101485.71
2023-05-05T17:59:19.969Z,101485.23
2023-05-05T18:01:48.046Z,101482.85
2023-05-05T18:04:16.630Z,101486.94
2023-05-05T18:06:44.709Z,101491.10
2023-05-05T18:09:13.285Z,101490.94
2023-05-05T18:11:42.374Z,101492.61
2023-05-05T18:14:10.959Z,101490.91
2023-05-05T18:16:39.137Z,101493.66
2023-05-05T18:19:07.513Z,101500.88
2023-05-05T18:21:35.553Z,101501.98
2023-05-05T18:24:15.801Z,101504.02
2023-05-05T18:26:52.310Z,101501.91
2023-05-05T18:29:24.245Z,101502.33
2023-05-05T18:31:54.921Z,101501.26
2023-05-05T18:34:23.254Z,101499.72
2023-05-05T18:36:54.311Z,101500.84
2023-05-05T18:39:23.119Z,101500.16
2023-05-05T18:41:51.397Z,101498.72
2023-05-05T18:44:20.169Z,101507.52
2023-05-05T18:46:48.679Z,101511.48
2023-05-05T18:49:16.952Z,101514.20
2023-05-05T18:51:45.125Z,101518.73
2023-05-05T18:54:13.249Z,101523.08
2023-05-05T18:56:42.438Z,101518.67
2023-05-05T18:59:10.432Z,101522.87
2023-05-05T19:01:38.500Z,101519.73
2023-05-05T19:04:15.518Z,101520.88
2023-05-05T19:06:52.522Z,101519.17
2023-05-05T19:09:20.862Z,101523.33
2023-05-05T19:11:48.948Z,101522.29
2023-05-05T19:14:17.837Z,101523.75
2023-05-05T19:16:46.116Z,101518.58
2023-05-05T19:19:14.478Z,101518.77
2023-05-05T19:21:42.555Z,101522.57
2023-05-05T19:24:10.723Z,101523.48
2023-05-05T19:26:39.011Z,101526.73
2023-05-05T19:29:07.076Z,101526.38
2023-05-05T19:31:35.021Z,101523.89
2023-05-05T19:34:04.964Z,101520.87
2023-05-05T19:36:34.481Z,101520.69
2023-05-05T19:39:04.580Z,101522.66
2023-05-05T19:41:35.337Z,101528.00
2023-05-05T19:44:03.488Z,101531.39
2023-05-05T19:46:31.518Z,101534.23
2023-05-05T19:48:59.941Z,101542.42
2023-05-05T19:51:28.008Z,101545.63
2023-05-05T19:53:56.034Z,101542.23
2023-05-05T19:56:24.257Z,101543.83
2023-05-05T19:59:02.792Z,101544.73
2023-05-05T20:01:30.856Z,101542.94
2023-05-05T20:03:59.177Z,101547.92
2023-05-05T20:06:27.293Z,101550.95
2023-05-05T20:08:55.685Z,101552.01
2023-05-05T20:11:25.896Z,101553.44
2023-05-05T20:13:54.178Z,101553.42
2023-05-05T20:16:22.378Z,101551.81
2023-05-05T20:18:51.209Z,101553.95
2023-05-05T20:21:19.424Z,101553.05
2023-05-05T20:23:47.640Z,101555.35
2023-05-05T20:26:15.970Z,101558.36
2023-05-05T20:28:45.781Z,101562.26
2023-05-05T20:31:14.964Z,101567.79
2023-05-05T20:33:43.254Z,101562.27
2023-05-05T20:36:11.484Z,101566.72
2023-05-05T20:38:39.612Z,101561.90
2023-05-05T20:41:07.879Z,101559.23
2023-05-05T20:43:36.804Z,101566.71
2023-05-05T20:46:04.838Z,101565.45
2023-05-05T20:48:32.901Z,101564.90
2023-05-05T20:51:06.377Z,101567.72
2023-05-05T20:53:34.514Z,101567.89
2023-05-05T20:56:02.649Z,101568.06
2023-05-05T20:58:30.936Z,101567.54
2023-05-05T21:00:59.029Z,101569.67
2023-05-05T21:03:27.066Z,101566.11
2023-05-05T21:05:55.357Z,101572.85
2023-05-05T21:08:23.430Z,101574.98
2023-05-05T21:10:51.365Z,101575.66
2023-05-05T21:13:19.611Z,101574.59
2023-05-05T21:15:47.845Z,101573.70
2023-05-05T21:18:15.944Z,101571.02
2023-05-05T21:20:43.901Z,101573.35
2023-05-05T21:23:12.568Z,101569.27
2023-05-05T21:25:40.642Z,101570.50
2023-05-05T21:28:08.712Z,101575.29
2023-05-05T21:30:36.745Z,101570.64
2023-05-05T21:33:04.805Z,101571.68
2023-05-05T21:35:33.065Z,101569.91
2023-05-05T21:38:01.370Z,101565.48
2023-05-05T21:40:29.313Z,101569.58
2023-05-05T21:42:57.565Z,101559.61
2023-05-05T21:45:25.601Z,101566.56
2023-05-05T21:47:53.757Z,101562.98
2023-05-05T21:50:21.714Z,101562.05
2023-05-05T21:52:49.728Z,101560.09
2023-05-05T21:55:17.774Z,101556.53
2023-05-05T21:57:45.779Z,101560.10
2023-05-05T22:00:16.959Z,101559.55
2023-05-05T22:02:45.701Z,101562.23
2023-05-05T22:05:14.197Z,101559.73
2023-05-05T22:07:42.268Z,101559.73
2023-05-05T22:10:10.943Z,101558.80
2023-05-05T22:12:39.620Z,101558.62
2023-05-05T22:15:08.896Z,101563.11
2023-05-05T22:17:37.281Z,101561.52
2023-05-05T22:20:06.580Z,101562.79
2023-05-05T22:22:35.720Z,101559.07
2023-05-05T22:25:04.194Z,101561.20
2023-05-05T22:27:32.163Z,101554.98
2023-05-05T22:30:00.338Z,101560.11
2023-05-05T22:32:28.423Z,101559.92
2023-05-05T22:34:56.712Z,101559.04
2023-05-05T22:37:24.861Z,101553.35
2023-05-05T22:39:52.766Z,101549.62
2023-05-05T22:42:21.113Z,101549.10
2023-05-05T22:44:49.106Z,101548.39
2023-05-05T22:47:19.193Z,101539.13
2023-05-05T22:49:47.476Z,101538.58
2023-05-05T22:52:15.601Z,101538.90
2023-05-05T22:54:43.672Z,101538.14
2023-05-05T22:57:11.899Z,101541.51
2023-05-05T22:59:39.769Z,101541.50
2023-05-05T23:02:07.874Z,101536.85
2023-05-05T23:04:36.066Z,101532.39
2023-05-05T23:07:04.277Z,101530.09
2023-05-05T23:09:32.175Z,101531.34
2023-05-05T23:12:00.733Z,101532.59
2023-05-05T23:14:28.711Z,101533.28
2023-05-05T23:16:56.756Z,101529.50
2023-05-05T23:19:24.948Z,101531.42
2023-05-05T23:21:53.803Z,101531.21
2023-05-05T23:24:22.261Z,101528.35
2023-05-05T23:26:51.930Z,101531.19
2023-05-05T23:29:20.714Z,101528.34
2023-05-05T23:31:48.782Z,101526.56
2023-05-05T23:34:16.856Z,101526.02
2023-05-05T23:36:44.829Z,101526.72
2023-05-05T23:39:12.999Z,101524.38
2023-05-05T23:41:40.980Z,101523.11
2023-05-05T23:44:08.965Z,101520.96
2023-05-05T23:46:37.121Z,101524.89
2023-05-05T23:49:05.215Z,101523.25
2023-05-05T23:51:33.157Z,101519.33
2023-05-05T23:54:01.320Z,101519.13
2023-05-05T23:56:29.250Z,101515.94
2023-05-05T23:58:57.376Z,101513.77
